Time;durP1;ratioP1;P1;durP2;ratioP2;P2;SDS_P1;SDS_P2;PMS_P1;PMS_P2;Temp;Humidity;BMP_temperature;BMP_pressure;BME280_temperature;BME280_humidity;BME280_pressure;Samples;Min_cycle;Max_cycle;Signal;HPM_P1;HPM_P2
2022/12/31 00:01:28;;;;;;;0.30;0.30;;;;;;;;;;7369570;19;20606;-65
2022/12/31 00:03:56;;;;;;;0.30;0.30;;;;;;;;;;7363535;19;20171;-65
2022/12/31 00:06:27;;;;;;;0.30;0.30;;;;;;;;;;7374808;19;20176;-65
2022/12/31 00:08:54;;;;;;;0.30;0.30;;;;;;;;;;7375987;19;20245;-65
2022/12/31 00:11:21;;;;;;;0.30;0.30;;;;;;;;;;7374775;19;20622;-65
2022/12/31 00:13:46;;;;;;;0.57;0.57;;;;;;;;;;7380116;19;20149;-65
2022/12/31 00:16:21;;;;;;;0.37;0.37;;;;;;;;;;7382649;19;20121;-65
2022/12/31 00:18:49;;;;;;;0.20;0.20;;;;;;;;;;7387260;19;20120;-65
2022/12/31 00:21:15;;;;;;;0.30;0.30;;;;;;;;;;7387583;19;20611;-65
2022/12/31 00:23:40;;;;;;;2.10;0.70;;;;;;;;;;7387711;19;20220;-65
2022/12/31 00:26:11;;;;;;;0.30;0.30;;;;;;;;;;7386389;19;20521;-65
2022/12/31 00:28:38;;;;;;;0.30;0.30;;;;;;;;;;7386418;19;20121;-65
2022/12/31 00:31:10;;;;;;;0.53;0.53;;;;;;;;;;7383350;19;20144;-65
2022/12/31 00:33:36;;;;;;;0.33;0.33;;;;;;;;;;7387552;19;20167;-65
2022/12/31 00:36:15;;;;;;;0.30;0.30;;;;;;;;;;7385877;19;20579;-65
2022/12/31 00:38:43;;;;;;;0.47;0.47;;;;;;;;;;7388203;19;20129;-65
2022/12/31 00:41:08;;;;;;;0.30;0.30;;;;;;;;;;7388350;19;20414;-65
2022/12/31 00:43:34;;;;;;;0.30;0.30;;;;;;;;;;7388043;19;20178;-65
2022/12/31 00:46:00;;;;;;;0.30;0.30;;;;;;;;;;7376344;19;20212;-65
2022/12/31 00:48:25;;;;;;;0.20;0.20;;;;;;;;;;7383074;19;20121;-65
2022/12/31 00:50:51;;;;;;;0.33;0.33;;;;;;;;;;7384441;19;20144;-65
2022/12/31 00:53:17;;;;;;;0.30;0.30;;;;;;;;;;7384730;19;20149;-65
2022/12/31 00:55:42;;;;;;;3.33;0.57;;;;;;;;;;7387632;19;20148;-65
2022/12/31 00:58:07;;;;;;;0.23;0.23;;;;;;;;;;7385840;19;20117;-65
2022/12/31 01:00:33;;;;;;;0.30;0.30;;;;;;;;;;7389038;19;20150;-65
2022/12/31 01:02:58;;;;;;;0.30;0.30;;;;;;;;;;7386342;19;20153;-65
2022/12/31 01:05:23;;;;;;;0.20;0.20;;;;;;;;;;7384995;19;20168;-65
2022/12/31 01:07:49;;;;;;;0.30;0.30;;;;;;;;;;7388776;19;20109;-65
2022/12/31 01:11:17;;;;;;;0.40;0.40;;;;;;;;;;7387744;19;20125;-65
2022/12/31 01:12:59;;;;;;;0.30;0.30;;;;;;;;;;7385624;19;20157;-65
2022/12/31 01:15:25;;;;;;;0.30;0.30;;;;;;;;;;7386798;19;20485;-65
2022/12/31 01:17:50;;;;;;;0.20;0.20;;;;;;;;;;7388274;19;20121;-65
2022/12/31 01:20:15;;;;;;;0.23;0.23;;;;;;;;;;7387185;19;20138;-64
2022/12/31 01:22:41;;;;;;;0.20;0.20;;;;;;;;;;7384238;19;20145;-63
2022/12/31 01:25:06;;;;;;;0.20;0.20;;;;;;;;;;7387477;19;20128;-68
2022/12/31 01:27:31;;;;;;;0.30;0.30;;;;;;;;;;7385493;19;20538;-65
2022/12/31 01:29:57;;;;;;;0.30;0.30;;;;;;;;;;7387738;19;20118;-65
2022/12/31 01:32:22;;;;;;;0.30;0.30;;;;;;;;;;7386613;19;20125;-65
2022/12/31 01:34:47;;;;;;;0.30;0.30;;;;;;;;;;7386616;19;20121;-65
2022/12/31 01:37:13;;;;;;;0.30;0.30;;;;;;;;;;7384340;19;20149;-65
2022/12/31 01:39:38;;;;;;;0.30;0.30;;;;;;;;;;7385024;19;20109;-65
2022/12/31 01:42:03;;;;;;;0.20;0.20;;;;;;;;;;7386610;19;20125;-65
2022/12/31 01:44:29;;;;;;;0.30;0.30;;;;;;;;;;7384290;19;20157;-65
2022/12/31 01:47:00;;;;;;;0.30;0.30;;;;;;;;;;7384762;19;20126;-65
2022/12/31 01:49:27;;;;;;;0.67;0.63;;;;;;;;;;7371382;19;20681;-65
2022/12/31 01:51:56;;;;;;;0.30;0.30;;;;;;;;;;7388584;19;20156;-65
2022/12/31 01:54:24;;;;;;;0.30;0.30;;;;;;;;;;7376451;19;20144;-65
2022/12/31 01:56:51;;;;;;;0.20;0.20;;;;;;;;;;7383994;19;20145;-65
2022/12/31 01:59:17;;;;;;;0.20;0.20;;;;;;;;;;7387244;19;20136;-65
2022/12/31 02:01:45;;;;;;;0.20;0.20;;;;;;;;;;7392115;19;20476;-65
2022/12/31 02:04:12;;;;;;;0.20;0.20;;;;;;;;;;7383411;19;21389;-65
2022/12/31 02:06:41;;;;;;;0.20;0.20;;;;;;;;;;7375581;19;20129;-65
2022/12/31 02:09:07;;;;;;;0.30;0.30;;;;;;;;;;7380986;19;20117;-65
2022/12/31 02:11:35;;;;;;;0.20;0.20;;;;;;;;;;7383112;19;20736;-65
2022/12/31 02:14:31;;;;;;;0.30;0.30;;;;;;;;;;7380890;19;20136;-65
2022/12/31 02:17:10;;;;;;;0.20;0.20;;;;;;;;;;7378556;19;20160;-65
2022/12/31 02:20:03;;;;;;;0.30;0.30;;;;;;;;;;7385709;19;20128;-65
2022/12/31 02:22:37;;;;;;;0.30;0.30;;;;;;;;;;7381816;19;20567;-65
2022/12/31 02:25:26;;;;;;;0.20;0.20;;;;;;;;;;7379389;19;20124;-65
2022/12/31 02:28:10;;;;;;;0.30;0.30;;;;;;;;;;7382555;19;20121;-65
2022/12/31 02:30:36;;;;;;;0.30;0.30;;;;;;;;;;7380865;19;20123;-65
2022/12/31 02:33:28;;;;;;;0.50;0.50;;;;;;;;;;7381048;19;20598;-65
2022/12/31 02:36:00;;;;;;;0.20;0.20;;;;;;;;;;7379028;19;20124;-65
2022/12/31 02:38:31;;;;;;;0.30;0.30;;;;;;;;;;7367394;19;20196;-65
2022/12/31 02:40:57;;;;;;;0.20;0.20;;;;;;;;;;7381295;19;20125;-65
2022/12/31 02:43:23;;;;;;;0.30;0.30;;;;;;;;;;7377210;19;20148;-65
2022/12/31 02:46:12;;;;;;;0.30;0.30;;;;;;;;;;7380963;19;20192;-65
2022/12/31 02:48:56;;;;;;;0.30;0.30;;;;;;;;;;7379401;19;20113;-65
2022/12/31 02:51:50;;;;;;;0.30;0.30;;;;;;;;;;7372706;19;20125;-65
2022/12/31 02:54:17;;;;;;;0.30;0.30;;;;;;;;;;7372934;19;20141;-65
2022/12/31 02:57:05;;;;;;;0.30;0.30;;;;;;;;;;7371041;19;20262;-65
2022/12/31 03:02:46;;;;;;;0.30;0.30;;;;;;;;;;7390459;19;20168;-65
2022/12/31 03:05:12;;;;;;;0.27;0.27;;;;;;;;;;7389541;19;20117;-65
2022/12/31 03:07:39;;;;;;;0.30;0.30;;;;;;;;;;7386700;19;20670;-65
2022/12/31 03:10:05;;;;;;;0.30;0.30;;;;;;;;;;7383523;19;20121;-65
2022/12/31 03:12:47;;;;;;;0.20;0.20;;;;;;;;;;7386608;19;20612;-65
2022/12/31 03:15:24;;;;;;;0.30;0.30;;;;;;;;;;7384097;19;20595;-65
2022/12/31 03:18:04;;;;;;;0.23;0.23;;;;;;;;;;7388185;19;20113;-65
2022/12/31 03:23:41;;;;;;;0.30;0.30;;;;;;;;;;7391838;19;20155;-65
2022/12/31 03:26:09;;;;;;;0.30;0.30;;;;;;;;;;7386844;19;20149;-65
2022/12/31 03:28:35;;;;;;;0.30;0.30;;;;;;;;;;7382418;19;20192;-65
2022/12/31 03:31:02;;;;;;;0.30;0.30;;;;;;;;;;7381318;19;20121;-65
2022/12/31 03:33:33;;;;;;;0.30;0.30;;;;;;;;;;7368923;19;20816;-65
2022/12/31 03:35:58;;;;;;;0.30;0.30;;;;;;;;;;7382590;19;20121;-65
2022/12/31 03:38:23;;;;;;;0.27;0.27;;;;;;;;;;7382071;19;20198;-65
2022/12/31 03:40:51;;;;;;;0.23;0.23;;;;;;;;;;7390159;19;20125;-65
2022/12/31 03:43:18;;;;;;;0.40;0.40;;;;;;;;;;7388584;19;20157;-65
2022/12/31 03:45:44;;;;;;;0.30;0.30;;;;;;;;;;7379632;19;20158;-65
2022/12/31 03:48:09;;;;;;;0.20;0.20;;;;;;;;;;7384948;19;20471;-65
2022/12/31 03:50:35;;;;;;;0.30;0.30;;;;;;;;;;7383480;19;20121;-65
2022/12/31 03:53:00;;;;;;;0.57;0.57;;;;;;;;;;7389278;19;20152;-65
2022/12/31 03:55:26;;;;;;;0.20;0.20;;;;;;;;;;7391024;19;20539;-65
2022/12/31 03:57:51;;;;;;;0.40;0.40;;;;;;;;;;7392555;19;20124;-65
2022/12/31 04:00:19;;;;;;;0.30;0.30;;;;;;;;;;7386236;19;20590;-65
2022/12/31 04:02:46;;;;;;;0.30;0.30;;;;;;;;;;7384771;19;20156;-65
2022/12/31 04:05:11;;;;;;;0.30;0.30;;;;;;;;;;7389454;19;20493;-65
2022/12/31 04:07:37;;;;;;;0.30;0.30;;;;;;;;;;7385515;19;20120;-65
2022/12/31 04:10:04;;;;;;;0.43;0.43;;;;;;;;;;7388554;19;20117;-65
2022/12/31 04:12:30;;;;;;;0.30;0.30;;;;;;;;;;7386480;19;20160;-65
2022/12/31 04:14:55;;;;;;;0.30;0.30;;;;;;;;;;7390092;19;20117;-65
2022/12/31 04:17:20;;;;;;;0.20;0.20;;;;;;;;;;7388685;19;20172;-65
2022/12/31 04:19:46;;;;;;;0.40;0.40;;;;;;;;;;7386529;19;20607;-65
2022/12/31 04:22:11;;;;;;;0.30;0.30;;;;;;;;;;7389613;19;20132;-65
2022/12/31 04:24:36;;;;;;;0.30;0.30;;;;;;;;;;7388399;19;20493;-65
2022/12/31 04:27:02;;;;;;;0.37;0.37;;;;;;;;;;7388207;19;20109;-65
2022/12/31 04:29:27;;;;;;;0.30;0.30;;;;;;;;;;7388079;19;20121;-65
2022/12/31 04:31:52;;;;;;;0.30;0.30;;;;;;;;;;7389136;19;20144;-65
2022/12/31 04:34:18;;;;;;;0.30;0.30;;;;;;;;;;7381354;19;20451;-65
2022/12/31 04:36:43;;;;;;;0.20;0.20;;;;;;;;;;7383834;19;20148;-65
2022/12/31 04:39:08;;;;;;;0.30;0.30;;;;;;;;;;7379020;19;20587;-65
2022/12/31 04:41:34;;;;;;;0.30;0.30;;;;;;;;;;7380089;19;20198;-65
2022/12/31 04:43:59;;;;;;;0.30;0.30;;;;;;;;;;7380059;19;20145;-65
2022/12/31 04:46:30;;;;;;;0.20;0.20;;;;;;;;;;7373867;19;20143;-65
2022/12/31 04:48:55;;;;;;;0.30;0.30;;;;;;;;;;7377932;19;20129;-65
2022/12/31 04:51:22;;;;;;;0.40;0.40;;;;;;;;;;7380127;19;20594;-65
2022/12/31 04:53:47;;;;;;;0.30;0.30;;;;;;;;;;7378737;19;20610;-65
2022/12/31 04:56:13;;;;;;;0.30;0.30;;;;;;;;;;7380630;19;20125;-65
2022/12/31 04:58:39;;;;;;;0.20;0.20;;;;;;;;;;7377812;19;20145;-65
2022/12/31 05:01:05;;;;;;;0.37;0.37;;;;;;;;;;7382695;19;20122;-65
2022/12/31 05:03:30;;;;;;;0.20;0.20;;;;;;;;;;7370834;19;20632;-65
2022/12/31 05:06:11;;;;;;;0.30;0.30;;;;;;;;;;7370623;19;20133;-65
2022/12/31 05:08:37;;;;;;;0.30;0.30;;;;;;;;;;7380586;19;20149;-65
2022/12/31 05:11:02;;;;;;;0.40;0.40;;;;;;;;;;7382280;19;20122;-65
2022/12/31 05:13:27;;;;;;;0.27;0.27;;;;;;;;;;7378487;19;20499;-65
2022/12/31 05:15:53;;;;;;;0.30;0.30;;;;;;;;;;7387768;19;20141;-65
2022/12/31 05:18:19;;;;;;;0.30;0.30;;;;;;;;;;7387924;19;20552;-65
2022/12/31 05:20:46;;;;;;;0.30;0.30;;;;;;;;;;7386062;19;20141;-65
2022/12/31 05:23:12;;;;;;;0.30;0.30;;;;;;;;;;7385271;19;20159;-65
2022/12/31 05:25:37;;;;;;;0.30;0.30;;;;;;;;;;7389718;19;20172;-65
2022/12/31 05:28:02;;;;;;;0.30;0.30;;;;;;;;;;7391048;19;20121;-65
2022/12/31 05:30:28;;;;;;;0.30;0.30;;;;;;;;;;7394068;19;20125;-65
2022/12/31 05:32:53;;;;;;;0.30;0.30;;;;;;;;;;7394793;19;20149;-65
2022/12/31 05:35:18;;;;;;;0.30;0.30;;;;;;;;;;7384457;19;20717;-65
2022/12/31 05:37:44;;;;;;;0.30;0.30;;;;;;;;;;7388904;19;20153;-65
2022/12/31 05:40:10;;;;;;;0.30;0.30;;;;;;;;;;7387592;19;20530;-65
2022/12/31 05:42:35;;;;;;;0.30;0.30;;;;;;;;;;7385967;19;20628;-65
2022/12/31 05:45:00;;;;;;;0.33;0.33;;;;;;;;;;7380312;19;20595;-65
2022/12/31 05:47:26;;;;;;;0.20;0.20;;;;;;;;;;7376253;19;20606;-65
2022/12/31 05:49:51;;;;;;;0.30;0.30;;;;;;;;;;7383826;19;20121;-65
2022/12/31 05:52:16;;;;;;;0.30;0.30;;;;;;;;;;7384083;19;20144;-65
2022/12/31 05:54:42;;;;;;;0.30;0.30;;;;;;;;;;7385935;19;20543;-65
2022/12/31 05:57:07;;;;;;;0.20;0.20;;;;;;;;;;7378008;19;20128;-65
2022/12/31 05:59:33;;;;;;;0.30;0.30;;;;;;;;;;7386752;19;20140;-65
2022/12/31 06:01:58;;;;;;;0.30;0.30;;;;;;;;;;7386964;19;20128;-65
2022/12/31 06:04:24;;;;;;;0.30;0.30;;;;;;;;;;7387737;19;20216;-65
2022/12/31 06:06:49;;;;;;;0.30;0.30;;;;;;;;;;7382460;19;20117;-65
2022/12/31 06:09:16;;;;;;;0.30;0.30;;;;;;;;;;7377950;19;20429;-65
2022/12/31 06:11:41;;;;;;;0.30;0.30;;;;;;;;;;7377851;19;20133;-65
2022/12/31 06:14:07;;;;;;;0.30;0.30;;;;;;;;;;7378920;19;20588;-65
2022/12/31 06:16:32;;;;;;;0.30;0.30;;;;;;;;;;7379504;19;20148;-65
2022/12/31 06:18:58;;;;;;;0.57;0.50;;;;;;;;;;7371052;19;20121;-65
2022/12/31 06:21:23;;;;;;;0.30;0.30;;;;;;;;;;7371261;19;20132;-65
2022/12/31 06:23:48;;;;;;;0.30;0.30;;;;;;;;;;7373895;19;20152;-65
2022/12/31 06:26:14;;;;;;;0.30;0.30;;;;;;;;;;7364735;19;20634;-65
2022/12/31 06:28:40;;;;;;;0.30;0.30;;;;;;;;;;7376015;19;20609;-65
2022/12/31 06:31:08;;;;;;;2.40;0.50;;;;;;;;;;7358556;19;20715;-63
2022/12/31 06:33:34;;;;;;;0.20;0.20;;;;;;;;;;7385790;19;20172;-65
2022/12/31 06:36:01;;;;;;;0.30;0.30;;;;;;;;;;7392154;19;20587;-63
2022/12/31 06:38:28;;;;;;;0.30;0.30;;;;;;;;;;7387043;19;20181;-63
2022/12/31 06:40:54;;;;;;;0.30;0.30;;;;;;;;;;7385052;19;20121;-63
2022/12/31 06:43:19;;;;;;;0.20;0.20;;;;;;;;;;7380228;19;20172;-65
2022/12/31 06:45:45;;;;;;;0.30;0.30;;;;;;;;;;7379877;19;20128;-63
2022/12/31 06:48:10;;;;;;;0.30;0.30;;;;;;;;;;7388363;19;20129;-63
2022/12/31 06:50:35;;;;;;;0.30;0.30;;;;;;;;;;7390564;19;20484;-63
2022/12/31 06:53:01;;;;;;;0.30;0.30;;;;;;;;;;7387062;19;20148;-64
2022/12/31 06:55:26;;;;;;;0.30;0.30;;;;;;;;;;7391120;19;20121;-64
2022/12/31 06:57:52;;;;;;;0.20;0.20;;;;;;;;;;7393024;19;20148;-63
2022/12/31 07:00:18;;;;;;;0.53;0.53;;;;;;;;;;7387867;19;20635;-63
2022/12/31 07:03:09;;;;;;;0.30;0.30;;;;;;;;;;7389714;19;20251;-63
2022/12/31 07:05:45;;;;;;;0.30;0.30;;;;;;;;;;7386420;19;20132;-63
2022/12/31 07:08:58;;;;;;;0.30;0.30;;;;;;;;;;7391596;19;20121;-64
2022/12/31 07:11:30;;;;;;;0.30;0.30;;;;;;;;;;7379727;19;20649;-65
2022/12/31 07:14:27;;;;;;;0.83;0.47;;;;;;;;;;7383365;19;20165;-65
2022/12/31 07:17:03;;;;;;;0.30;0.30;;;;;;;;;;7384610;19;20196;-65
2022/12/31 07:19:47;;;;;;;0.47;0.47;;;;;;;;;;7387424;19;20630;-64
2022/12/31 07:22:15;;;;;;;0.30;0.30;;;;;;;;;;7385157;19;20125;-65
2022/12/31 07:24:44;;;;;;;0.30;0.30;;;;;;;;;;7378857;19;20176;-65
2022/12/31 07:27:33;;;;;;;0.30;0.30;;;;;;;;;;7384628;19;20486;-65
2022/12/31 07:30:09;;;;;;;0.20;0.20;;;;;;;;;;7385771;19;20132;-65
2022/12/31 07:33:00;;;;;;;0.30;0.30;;;;;;;;;;7374904;19;20163;-65
2022/12/31 07:35:35;;;;;;;0.30;0.30;;;;;;;;;;7386798;19;20509;-65
2022/12/31 07:38:21;;;;;;;0.30;0.30;;;;;;;;;;7377443;19;20620;-65
2022/12/31 07:40:58;;;;;;;0.30;0.30;;;;;;;;;;7380198;19;20129;-65
2022/12/31 07:43:28;;;;;;;0.30;0.30;;;;;;;;;;7385791;19;20517;-65
2022/12/31 07:46:30;;;;;;;0.30;0.30;;;;;;;;;;7384572;19;20523;-65
2022/12/31 07:48:57;;;;;;;0.30;0.30;;;;;;;;;;7387008;19;20704;-65
2022/12/31 07:51:22;;;;;;;0.30;0.30;;;;;;;;;;7380332;19;20157;-65
2022/12/31 07:53:48;;;;;;;0.30;0.30;;;;;;;;;;7379566;19;20160;-65
2022/12/31 07:56:13;;;;;;;0.30;0.30;;;;;;;;;;7364071;19;20121;-65
2022/12/31 07:58:50;;;;;;;0.30;0.30;;;;;;;;;;7384582;19;20149;-65
2022/12/31 08:01:21;;;;;;;0.40;0.40;;;;;;;;;;7383832;19;20125;-65
2022/12/31 08:03:58;;;;;;;0.30;0.30;;;;;;;;;;7370846;19;20144;-65
2022/12/31 08:06:49;;;;;;;0.20;0.20;;;;;;;;;;7360832;19;20156;-65
2022/12/31 08:09:45;;;;;;;0.37;0.37;;;;;;;;;;7381895;19;20160;-65
2022/12/31 08:12:11;;;;;;;0.30;0.30;;;;;;;;;;7379745;19;20129;-65
2022/12/31 08:14:43;;;;;;;0.30;0.30;;;;;;;;;;7380601;19;20155;-65
2022/12/31 08:17:18;;;;;;;0.30;0.30;;;;;;;;;;7376533;19;20139;-65
2022/12/31 08:19:44;;;;;;;0.30;0.30;;;;;;;;;;7384430;19;20120;-65
2022/12/31 08:22:51;;;;;;;0.20;0.20;;;;;;;;;;7380325;19;20120;-65
2022/12/31 08:25:56;;;;;;;0.37;0.37;;;;;;;;;;7383578;19;20140;-65
2022/12/31 08:28:45;;;;;;;0.27;0.27;;;;;;;;;;7385212;19;20198;-65
2022/12/31 08:31:13;;;;;;;0.30;0.30;;;;;;;;;;7388615;19;20137;-65
2022/12/31 08:33:43;;;;;;;0.30;0.30;;;;;;;;;;7388825;19;20222;-65
2022/12/31 08:36:32;;;;;;;0.30;0.30;;;;;;;;;;7387167;19;20153;-65
2022/12/31 08:39:23;;;;;;;0.30;0.30;;;;;;;;;;7385422;19;20129;-65
2022/12/31 08:41:53;;;;;;;0.30;0.30;;;;;;;;;;7389971;19;21015;-64
2022/12/31 08:44:25;;;;;;;0.30;0.30;;;;;;;;;;7385730;19;20153;-64
2022/12/31 08:46:58;;;;;;;0.60;0.60;;;;;;;;;;7386157;19;20136;-64
2022/12/31 08:49:26;;;;;;;0.40;0.40;;;;;;;;;;7389155;19;20129;-64
2022/12/31 08:51:51;;;;;;;0.40;0.40;;;;;;;;;;7387295;19;20124;-63
2022/12/31 08:54:17;;;;;;;0.30;0.30;;;;;;;;;;7386997;19;20152;-65
2022/12/31 08:57:01;;;;;;;0.30;0.30;;;;;;;;;;7392149;19;20132;-65
2022/12/31 08:59:46;;;;;;;0.27;0.27;;;;;;;;;;7393180;19;20136;-65
2022/12/31 09:02:32;;;;;;;0.30;0.30;;;;;;;;;;7390471;19;20131;-65
2022/12/31 09:05:11;;;;;;;0.30;0.30;;;;;;;;;;7393621;19;20125;-65
2022/12/31 09:07:40;;;;;;;0.40;0.40;;;;;;;;;;7375866;19;20184;-65
2022/12/31 09:10:17;;;;;;;0.30;0.30;;;;;;;;;;7382648;19;20161;-66
2022/12/31 09:12:51;;;;;;;0.50;0.50;;;;;;;;;;7375992;19;20510;-65
2022/12/31 09:15:25;;;;;;;0.50;0.50;;;;;;;;;;7375539;19;20117;-65
2022/12/31 09:17:51;;;;;;;0.60;0.60;;;;;;;;;;7381301;19;20125;-65
2022/12/31 09:20:22;;;;;;;0.40;0.40;;;;;;;;;;7384002;19;20644;-65
2022/12/31 09:22:49;;;;;;;0.30;0.30;;;;;;;;;;7369923;19;20156;-65
2022/12/31 09:25:16;;;;;;;0.40;0.40;;;;;;;;;;7371134;19;20586;-65
2022/12/31 09:27:56;;;;;;;0.30;0.30;;;;;;;;;;7374719;19;20170;-65
2022/12/31 09:30:22;;;;;;;0.30;0.30;;;;;;;;;;7372004;19;20666;-65
2022/12/31 09:33:04;;;;;;;0.40;0.40;;;;;;;;;;7375701;19;20204;-65
2022/12/31 09:35:36;;;;;;;0.30;0.30;;;;;;;;;;7371332;19;20136;-65
2022/12/31 09:38:16;;;;;;;0.30;0.30;;;;;;;;;;7372582;19;20152;-65
2022/12/31 09:40:50;;;;;;;0.30;0.30;;;;;;;;;;7371057;19;20129;-65
2022/12/31 09:43:46;;;;;;;0.30;0.30;;;;;;;;;;7387415;19;20548;-65
2022/12/31 09:46:17;;;;;;;0.40;0.40;;;;;;;;;;7388452;19;20125;-65
2022/12/31 09:49:08;;;;;;;0.30;0.30;;;;;;;;;;7391490;19;20121;-65
2022/12/31 09:51:44;;;;;;;0.50;0.50;;;;;;;;;;7391289;19;20137;-65
2022/12/31 09:54:30;;;;;;;0.40;0.40;;;;;;;;;;7391788;19;20149;-65
2022/12/31 09:57:14;;;;;;;0.30;0.30;;;;;;;;;;7388318;19;20135;-65
2022/12/31 09:59:47;;;;;;;0.50;0.50;;;;;;;;;;7395186;19;20538;-65
2022/12/31 10:02:29;;;;;;;0.87;0.70;;;;;;;;;;7388584;19;20126;-65
2022/12/31 10:05:34;;;;;;;0.30;0.30;;;;;;;;;;7392223;19;20136;-65
2022/12/31 10:08:12;;;;;;;0.30;0.30;;;;;;;;;;7386282;19;20520;-65
2022/12/31 10:10:49;;;;;;;0.30;0.30;;;;;;;;;;7391611;19;20121;-64
2022/12/31 10:13:35;;;;;;;0.30;0.30;;;;;;;;;;7390189;19;20670;-65
2022/12/31 10:16:15;;;;;;;0.30;0.30;;;;;;;;;;7393368;19;20133;-65
2022/12/31 10:18:57;;;;;;;0.35;0.35;;;;;;;;;;7382722;19;20147;-65
2022/12/31 10:21:42;;;;;;;0.30;0.30;;;;;;;;;;7390479;19;20586;-65
2022/12/31 10:24:07;;;;;;;0.30;0.30;;;;;;;;;;7385611;19;20163;-65
2022/12/31 10:26:41;;;;;;;0.30;0.30;;;;;;;;;;7387393;19;20129;-65
2022/12/31 10:29:20;;;;;;;0.43;0.40;;;;;;;;;;7390773;19;20152;-65
2022/12/31 10:31:52;;;;;;;0.30;0.30;;;;;;;;;;7379143;19;20627;-65
2022/12/31 10:34:42;;;;;;;0.30;0.30;;;;;;;;;;7383889;19;20228;-65
2022/12/31 10:37:12;;;;;;;0.30;0.30;;;;;;;;;;7391128;19;20126;-65
2022/12/31 10:39:53;;;;;;;0.30;0.30;;;;;;;;;;7389166;19;20478;-65
2022/12/31 10:42:33;;;;;;;0.30;0.30;;;;;;;;;;7377913;19;20478;-65
2022/12/31 10:45:15;;;;;;;0.30;0.30;;;;;;;;;;7373874;19;20153;-65
2022/12/31 10:47:59;;;;;;;0.50;0.50;;;;;;;;;;7385408;19;20156;-65
2022/12/31 10:50:33;;;;;;;0.40;0.40;;;;;;;;;;7385151;19;20220;-65
2022/12/31 10:53:28;;;;;;;0.30;0.30;;;;;;;;;;7392254;19;20168;-65
2022/12/31 22:55:24;;;;;;;5.37;2.37;;;;;;;;;;7382008;19;20196;-65
2022/12/31 22:57:49;;;;;;;3.33;3.03;;;;;;;;;;7388756;19;20349;-64
2022/12/31 23:00:14;;;;;;;2.37;2.27;;;;;;;;;;7382329;19;20125;-64
2022/12/31 23:02:39;;;;;;;1.80;1.70;;;;;;;;;;7372793;19;23777;-64
2022/12/31 23:05:05;;;;;;;2.53;2.33;;;;;;;;;;7388802;19;20124;-64
2022/12/31 23:07:30;;;;;;;2.20;2.03;;;;;;;;;;7383949;19;20188;-64
2022/12/31 23:12:40;;;;;;;2.03;1.93;;;;;;;;;;7383866;19;20220;-64
2022/12/31 23:23:20;;;;;;;3.33;3.10;;;;;;;;;;7389741;19;20172;-64
2022/12/31 23:25:48;;;;;;;8.23;3.83;;;;;;;;;;7386282;19;20128;-63
2022/12/31 23:28:22;;;;;;;5.90;5.40;;;;;;;;;;7386568;19;20125;-65
2022/12/31 23:30:50;;;;;;;4.23;3.83;;;;;;;;;;7385543;19;20129;-64
2022/12/31 23:33:17;;;;;;;8.93;6.03;;;;;;;;;;7375660;19;20453;-64
2022/12/31 23:35:43;;;;;;;6.53;5.90;;;;;;;;;;7383697;19;20180;-64
2022/12/31 23:38:08;;;;;;;6.17;3.83;;;;;;;;;;7382901;19;20454;-63
2022/12/31 23:40:33;;;;;;;5.23;4.77;;;;;;;;;;7383199;19;20129;-65
2022/12/31 23:43:04;;;;;;;3.93;3.70;;;;;;;;;;7383582;19;20145;-65
2022/12/31 23:45:30;;;;;;;5.27;4.90;;;;;;;;;;7383879;19;20145;-65
2022/12/31 23:47:55;;;;;;;4.37;3.97;;;;;;;;;;7376061;19;20125;-65
2022/12/31 23:50:21;;;;;;;5.00;3.33;;;;;;;;;;7382663;19;20129;-65
2022/12/31 23:52:46;;;;;;;3.97;3.47;;;;;;;;;;7378298;19;20569;-65
2022/12/31 23:55:11;;;;;;;4.80;4.33;;;;;;;;;;7380497;19;20121;-65
2022/12/31 23:57:37;;;;;;;3.83;3.53;;;;;;;;;;7385955;19;20165;-64
